Time;durP1;ratioP1;P1;durP2;ratioP2;P2;SDS_P1;SDS_P2;PMS_P1;PMS_P2;Temp;Humidity;BMP_temperature;BMP_pressure;BME280_temperature;BME280_humidity;BME280_pressure;Samples;Min_cycle;Max_cycle;Signal;HPM_P1;HPM_P2
2022/06/15 00:01:36;;;;;;;8.28;3.08;;;;;;;13.99;72.32;101103.16;1764729;80;26019;-84
2022/06/15 00:04:03;;;;;;;7.92;3.45;;;;;;;14.00;72.55;101104.84;1741124;82;27441;-84
2022/06/15 00:06:34;;;;;;;7.35;2.80;;;;;;;14.01;72.56;101105.14;1735914;80;25914;-84
2022/06/15 00:09:01;;;;;;;8.45;2.65;;;;;;;14.01;72.62;101111.06;1737392;82;25721;-83
2022/06/15 00:11:38;;;;;;;6.85;3.35;;;;;;;13.99;72.60;101105.84;1753655;80;26486;-83
2022/06/15 00:14:13;;;;;;;5.92;3.20;;;;;;;13.97;72.82;101102.52;1729769;82;26039;-84
2022/06/15 00:16:39;;;;;;;9.15;3.33;;;;;;;13.94;72.77;101102.39;1733512;82;27487;-85
2022/06/15 00:19:06;;;;;;;6.97;3.30;;;;;;;13.94;72.95;101096.20;1737855;81;25951;-84
2022/06/15 00:21:33;;;;;;;7.62;2.92;;;;;;;13.94;73.07;101105.09;1757811;80;25845;-84
2022/06/15 00:24:00;;;;;;;6.03;3.20;;;;;;;13.95;73.00;101097.84;1724229;82;26331;-83
2022/06/15 00:26:27;;;;;;;9.25;3.67;;;;;;;13.92;73.01;101102.30;1762349;80;25851;-84
2022/06/15 00:28:54;;;;;;;7.20;2.87;;;;;;;13.88;73.13;101100.49;1733927;82;27450;-84
2022/06/15 00:31:21;;;;;;;11.48;3.95;;;;;;;13.88;73.18;101105.04;1764880;81;26320;-85
2022/06/15 00:33:48;;;;;;;9.85;3.15;;;;;;;13.84;73.19;101105.95;1741000;82;25845;-83
2022/06/15 00:36:18;;;;;;;6.15;4.00;;;;;;;13.82;73.20;101105.31;1758309;81;25816;-84
2022/06/15 00:38:51;;;;;;;10.30;3.33;;;;;;;13.81;73.34;101110.38;1765693;81;25998;-83
2022/06/15 00:41:26;;;;;;;5.90;3.33;;;;;;;13.81;73.36;101106.88;1763685;81;27457;-83
2022/06/15 00:44:04;;;;;;;5.40;3.00;;;;;;;13.75;73.30;101105.77;1746761;81;26394;-84
2022/06/15 00:46:39;;;;;;;7.33;3.20;;;;;;;13.68;73.43;101106.77;1742279;81;25889;-83
2022/06/15 00:49:17;;;;;;;8.30;3.27;;;;;;;13.62;73.57;101102.97;1762279;81;25835;-84
2022/06/15 00:51:51;;;;;;;9.88;3.70;;;;;;;13.63;73.74;101103.30;1728570;82;25282;-84
2022/06/15 00:54:18;;;;;;;11.35;3.55;;;;;;;13.61;73.68;101097.78;1738085;80;27510;-84
2022/06/15 00:56:45;;;;;;;9.60;3.60;;;;;;;13.62;73.79;101100.81;1745527;81;25907;-83
2022/06/15 00:59:25;;;;;;;9.70;3.30;;;;;;;13.61;73.73;101104.02;1739303;81;25842;-84
2022/06/15 01:01:53;;;;;;;8.65;3.62;;;;;;;13.61;73.73;101101.83;1726751;82;25923;-84
2022/06/15 01:04:21;;;;;;;9.43;4.83;;;;;;;13.52;73.65;101106.52;1730570;82;25454;-85
2022/06/15 01:07:11;;;;;;;5.33;3.90;;;;;;;13.48;73.77;101105.23;1745345;81;28059;-83
2022/06/15 01:09:43;;;;;;;7.05;3.60;;;;;;;13.44;73.84;101099.92;1754317;81;25915;-84
2022/06/15 01:12:30;;;;;;;9.95;3.55;;;;;;;13.41;74.00;101098.95;1740553;81;25608;-84
2022/06/15 01:15:26;;;;;;;6.72;2.92;;;;;;;13.42;74.05;101112.73;1755597;81;25767;-84
2022/06/15 01:18:01;;;;;;;11.57;3.87;;;;;;;13.38;74.15;101103.39;1700527;83;25805;-84
2022/06/15 01:20:57;;;;;;;7.10;2.98;;;;;;;13.34;74.24;101106.66;1740135;81;27492;-84
2022/06/15 01:23:56;;;;;;;7.37;3.52;;;;;;;13.27;74.19;101106.59;1736532;80;25797;-84
2022/06/15 01:27:19;;;;;;;12.90;3.52;;;;;;;13.23;74.40;101108.50;1761939;81;25678;-85
2022/06/15 01:30:25;;;;;;;3.95;2.90;;;;;;;13.18;74.43;101109.08;1733431;82;25929;-83
2022/06/15 01:33:06;;;;;;;10.80;3.30;;;;;;;13.12;74.47;101105.81;1765275;81;25863;-83
2022/06/15 01:35:43;;;;;;;5.37;3.35;;;;;;;13.08;74.56;101099.98;1760509;81;27519;-84
2022/06/15 01:38:43;;;;;;;10.43;3.58;;;;;;;13.06;74.67;101106.58;1726325;81;26483;-84
2022/06/15 01:41:44;;;;;;;8.08;3.25;;;;;;;13.04;74.83;101097.33;1735233;81;25914;-84
2022/06/15 01:44:16;;;;;;;7.15;3.42;;;;;;;12.99;74.84;101101.09;1726788;81;25989;-84
2022/06/15 01:46:47;;;;;;;6.67;3.40;;;;;;;12.93;74.95;101092.45;1765500;80;26371;-84
2022/06/15 01:49:21;;;;;;;8.50;3.37;;;;;;;12.90;75.09;101092.81;1739937;81;28277;-84
2022/06/15 01:51:49;;;;;;;7.22;3.70;;;;;;;12.88;75.10;101103.42;1740870;82;25809;-84
2022/06/15 01:54:27;;;;;;;9.08;3.60;;;;;;;12.84;75.39;101096.27;1765068;81;26345;-84
2022/06/15 01:56:56;;;;;;;11.93;3.70;;;;;;;12.82;75.45;101099.66;1764237;81;27352;-84
2022/06/15 01:59:37;;;;;;;10.08;3.72;;;;;;;12.83;75.54;101101.84;1741200;82;25752;-84
2022/06/15 02:02:13;;;;;;;;;;;;;;;12.81;75.76;101102.00;1766184;80;27623;-85
2022/06/15 02:05:00;;;;;;;7.17;3.50;;;;;;;12.74;75.97;101098.42;1704466;81;25752;-84
2022/06/15 02:07:38;;;;;;;7.37;3.45;;;;;;;12.66;76.11;101102.55;1740723;81;25790;-84
2022/06/15 02:10:20;;;;;;;9.58;3.95;;;;;;;12.63;76.15;101099.41;1754966;81;25828;-83
2022/06/15 02:13:15;;;;;;;9.80;4.37;;;;;;;12.63;76.30;101103.44;1729577;82;25967;-83
2022/06/15 02:15:47;;;;;;;6.87;3.77;;;;;;;12.62;76.34;101104.45;1751647;80;27449;-84
2022/06/15 02:18:20;;;;;;;8.15;3.87;;;;;;;12.59;76.52;101108.37;1756577;81;25880;-84
2022/06/15 02:20:52;;;;;;;9.93;4.12;;;;;;;12.60;76.54;101110.52;1743920;81;25304;-84
2022/06/15 02:23:20;;;;;;;7.80;4.22;;;;;;;12.58;76.72;101109.38;1730173;82;25791;-83
2022/06/15 02:25:51;;;;;;;12.15;4.92;;;;;;;12.58;76.84;101105.84;1721251;82;25903;-84
2022/06/15 02:28:22;;;;;;;14.43;4.50;;;;;;;12.54;76.86;101111.27;1749467;81;27604;-85
2022/06/15 02:30:49;;;;;;;;;;;;;;;12.53;77.08;101113.12;1732031;82;26022;-84
2022/06/15 02:33:30;;;;;;;8.43;4.20;;;;;;;12.53;77.33;101112.31;1731723;82;25932;-82
2022/06/15 02:35:59;;;;;;;;;;;;;;;12.50;77.41;101114.02;1753183;80;26569;-83
2022/06/15 02:38:29;;;;;;;10.50;4.83;;;;;;;12.47;77.71;101112.53;1748186;81;25810;-83
2022/06/15 02:40:57;;;;;;;9.50;4.33;;;;;;;12.45;78.04;101116.41;1755743;81;27633;-84
2022/06/15 02:43:28;;;;;;;12.82;4.53;;;;;;;12.43;78.13;101121.14;1751505;81;25959;-83
2022/06/15 02:45:59;;;;;;;8.45;4.25;;;;;;;12.45;78.33;101121.28;1765131;79;25300;-83
2022/06/15 02:48:28;;;;;;;7.80;4.58;;;;;;;12.43;78.34;101116.61;1734018;81;26119;-83
2022/06/15 02:51:04;;;;;;;9.40;4.03;;;;;;;12.45;78.44;101120.45;1712233;80;25868;-83
2022/06/15 02:53:34;;;;;;;6.60;4.15;;;;;;;12.49;78.51;101127.14;1718277;81;27838;-82
2022/06/15 02:56:05;;;;;;;9.88;4.37;;;;;;;12.52;78.50;101126.25;1758946;79;25824;-84
2022/06/15 02:58:39;;;;;;;9.80;4.10;;;;;;;12.53;78.36;101131.13;1765093;81;26384;-83
2022/06/15 03:01:06;;;;;;;9.93;5.12;;;;;;;12.51;78.43;101131.82;1725438;81;25829;-84
2022/06/15 03:03:35;;;;;;;8.18;4.30;;;;;;;12.51;78.58;101135.85;1755315;81;25758;-83
2022/06/15 03:06:17;;;;;;;7.03;4.35;;;;;;;12.52;78.65;101130.28;1751890;81;28503;-84
2022/06/15 03:08:44;;;;;;;9.65;4.42;;;;;;;12.51;78.69;101135.31;1746321;81;25832;-84
2022/06/15 03:11:13;;;;;;;5.67;3.40;;;;;;;12.52;78.76;101136.16;1761644;81;25862;-84
2022/06/15 03:13:39;;;;;;;6.95;3.87;;;;;;;12.52;78.69;101134.31;1759372;80;25761;-84
2022/06/15 03:16:06;;;;;;;7.78;3.70;;;;;;;12.54;78.68;101136.80;1751288;81;25719;-82
2022/06/15 03:18:33;;;;;;;8.30;4.22;;;;;;;12.60;78.73;101132.86;1733951;81;27511;-83
2022/06/15 03:21:03;;;;;;;9.23;3.85;;;;;;;12.65;78.58;101137.68;1739810;81;25807;-83
2022/06/15 03:23:31;;;;;;;6.85;3.60;;;;;;;12.70;78.62;101128.55;1734798;82;25943;-82
2022/06/15 03:26:00;;;;;;;9.68;3.75;;;;;;;12.75;78.48;101135.52;1743198;80;25859;-82
2022/06/15 03:28:28;;;;;;;7.55;3.60;;;;;;;12.77;78.36;101131.64;1764316;81;25900;-83
2022/06/15 03:30:54;;;;;;;9.95;4.37;;;;;;;12.82;78.21;101131.91;1752424;81;27454;-82
2022/06/15 03:33:21;;;;;;;6.85;3.58;;;;;;;12.81;78.17;101134.27;1740763;82;26247;-84
2022/06/15 03:35:49;;;;;;;8.85;3.70;;;;;;;12.85;78.16;101140.12;1762503;80;25784;-83
2022/06/15 03:38:17;;;;;;;9.53;4.47;;;;;;;12.90;78.19;101143.90;1739337;81;25777;-83
2022/06/15 03:41:02;;;;;;;10.30;3.75;;;;;;;12.93;78.06;101127.41;1753044;81;25340;-84
2022/06/15 03:43:29;;;;;;;7.10;4.12;;;;;;;12.95;78.14;101137.95;1714182;82;28284;-83
2022/06/15 03:45:56;;;;;;;15.40;4.92;;;;;;;12.97;78.26;101138.60;1754872;81;25764;-84
2022/06/15 03:48:23;;;;;;;8.45;3.87;;;;;;;12.98;78.07;101142.97;1763856;81;25851;-82
2022/06/15 03:50:50;;;;;;;7.65;4.05;;;;;;;13.00;78.20;101137.70;1753637;79;25817;-84
2022/06/15 03:53:17;;;;;;;7.95;3.75;;;;;;;13.05;78.22;101147.42;1714940;81;25958;-83
2022/06/15 03:55:45;;;;;;;8.65;3.52;;;;;;;13.11;78.24;101139.09;1723551;81;27446;-83
2022/06/15 03:58:18;;;;;;;7.00;4.37;;;;;;;13.14;78.31;101141.41;1730821;82;25910;-84
2022/06/15 04:00:47;;;;;;;7.75;4.25;;;;;;;13.15;78.22;101141.75;1753198;81;25983;-83
2022/06/15 04:03:13;;;;;;;5.53;3.58;;;;;;;13.19;78.55;101145.73;1719607;82;25965;-83
2022/06/15 04:05:49;;;;;;;8.60;4.10;;;;;;;13.25;78.34;101143.61;1701534;82;25986;-84
2022/06/15 04:08:35;;;;;;;5.42;3.62;;;;;;;13.27;78.23;101145.59;1741001;82;29540;-84
2022/06/15 04:11:58;;;;;;;6.42;3.67;;;;;;;13.32;78.30;101149.06;1765363;80;25875;-83
2022/06/15 04:13:41;;;;;;;14.47;4.42;;;;;;;13.37;78.52;101137.20;1729904;82;25855;-85
2022/06/15 04:16:10;;;;;;;12.65;4.08;;;;;;;13.44;78.19;101137.59;1755154;81;25766;-84
2022/06/15 04:18:37;;;;;;;10.40;4.03;;;;;;;13.46;77.94;101143.62;1754361;81;25865;-83
2022/06/15 04:21:05;;;;;;;10.50;4.35;;;;;;;13.48;77.86;101140.22;1729784;81;28077;-85
2022/06/15 04:23:33;;;;;;;10.32;4.50;;;;;;;13.53;78.02;101143.18;1730849;82;25816;-83
2022/06/15 04:26:02;;;;;;;11.50;3.85;;;;;;;13.58;77.91;101141.27;1753913;80;25674;-84
2022/06/15 04:28:36;;;;;;;5.85;3.70;;;;;;;13.65;77.90;101142.13;1763042;81;25767;-84
2022/06/15 04:31:04;;;;;;;8.53;4.12;;;;;;;13.71;77.95;101138.66;1752338;81;26057;-84
2022/06/15 04:33:33;;;;;;;9.90;4.53;;;;;;;13.76;77.77;101140.27;1734226;82;28398;-84
2022/06/15 04:36:00;;;;;;;8.43;4.78;;;;;;;13.81;77.81;101138.64;1735596;82;26060;-84
2022/06/15 04:38:27;;;;;;;7.95;3.65;;;;;;;13.88;77.90;101143.58;1739874;80;25812;-83
2022/06/15 04:40:55;;;;;;;8.28;4.08;;;;;;;13.94;77.95;101140.64;1717756;82;26428;-82
2022/06/15 04:43:22;;;;;;;7.00;4.00;;;;;;;14.02;77.96;101138.30;1719675;82;25916;-84
2022/06/15 04:45:49;;;;;;;8.88;4.70;;;;;;;14.07;77.72;101138.56;1732645;82;27457;-83
2022/06/15 04:48:21;;;;;;;9.75;4.00;;;;;;;14.16;77.87;101131.97;1762478;80;26361;-84
2022/06/15 04:50:47;;;;;;;9.43;3.60;;;;;;;14.29;77.85;101137.48;1732484;82;25845;-82
2022/06/15 04:53:15;;;;;;;10.65;3.75;;;;;;;14.32;77.12;101135.23;1724889;82;25878;-83
2022/06/15 04:55:42;;;;;;;7.03;3.50;;;;;;;14.34;76.80;101133.69;1756308;81;25875;-84
2022/06/15 04:58:08;;;;;;;8.48;4.00;;;;;;;14.38;76.77;101133.60;1741813;81;27439;-83
2022/06/15 05:00:43;;;;;;;10.75;4.20;;;;;;;14.46;76.95;101133.44;1746333;81;26010;-82
2022/06/15 05:03:12;;;;;;;9.60;3.98;;;;;;;14.54;76.51;101138.14;1760002;80;25836;-84
2022/06/15 05:05:39;;;;;;;15.40;8.28;;;;;;;14.61;76.72;101139.02;1718475;82;25900;-83
2022/06/15 05:08:07;;;;;;;8.10;3.55;;;;;;;14.72;76.84;101139.48;1740640;81;25917;-83
2022/06/15 05:10:33;;;;;;;9.88;3.80;;;;;;;14.81;76.46;101147.72;1713529;82;27514;-82
2022/06/15 05:13:00;;;;;;;9.58;3.65;;;;;;;14.87;76.20;101145.56;1764754;80;26696;-84
2022/06/15 05:15:26;;;;;;;9.18;3.00;;;;;;;14.94;76.30;101148.62;1728467;82;25837;-83
2022/06/15 05:17:55;;;;;;;8.93;3.37;;;;;;;15.05;76.31;101145.86;1740571;81;25818;-83
2022/06/15 05:20:21;;;;;;;9.45;3.52;;;;;;;15.15;76.01;101147.64;1762394;81;26045;-82
2022/06/15 05:22:53;;;;;;;9.10;2.40;;;;;;;15.24;75.60;101147.78;1758624;79;27407;-83
2022/06/15 05:25:22;;;;;;;8.88;3.37;;;;;;;15.32;75.58;101151.63;1740717;82;25928;-84
2022/06/15 05:27:49;;;;;;;5.30;2.70;;;;;;;15.35;74.78;101148.00;1765565;81;25825;-83
2022/06/15 05:30:16;;;;;;;8.30;2.83;;;;;;;15.39;74.49;101151.98;1740276;80;26576;-83
2022/06/15 05:32:42;;;;;;;6.90;2.83;;;;;;;15.42;74.29;101157.46;1731636;82;25791;-84
2022/06/15 05:35:09;;;;;;;9.48;2.58;;;;;;;15.51;74.82;101160.32;1745807;81;27434;-84
2022/06/15 05:37:36;;;;;;;12.93;2.87;;;;;;;15.61;74.80;101158.59;1741802;81;25961;-83
2022/06/15 05:40:04;;;;;;;6.30;2.58;;;;;;;15.71;75.21;101158.48;1747682;81;25686;-82
2022/06/15 05:42:31;;;;;;;5.95;2.33;;;;;;;15.84;74.73;101161.20;1729201;82;25765;-84
2022/06/15 05:45:01;;;;;;;9.80;2.33;;;;;;;15.95;74.72;101152.99;1741610;80;25935;-83
2022/06/15 05:47:30;;;;;;;3.50;2.35;;;;;;;16.01;73.92;101154.86;1702225;82;27559;-83
2022/06/15 05:49:59;;;;;;;6.10;2.15;;;;;;;16.07;74.18;101158.91;1754406;80;26672;-82
2022/06/15 05:52:27;;;;;;;7.00;2.10;;;;;;;16.16;74.07;101156.83;1715068;82;25295;-83
2022/06/15 05:54:54;;;;;;;7.15;2.40;;;;;;;16.23;73.93;101161.16;1720550;82;25774;-84
2022/06/15 05:57:23;;;;;;;4.55;2.20;;;;;;;16.36;73.44;101161.66;1742550;81;25811;-82
2022/06/15 05:59:51;;;;;;;5.20;2.35;;;;;;;16.38;72.50;101161.48;1751134;80;28246;-83
2022/06/15 06:02:20;;;;;;;4.67;2.67;;;;;;;16.35;72.11;101157.31;1737779;81;26614;-83
2022/06/15 06:04:48;;;;;;;5.22;2.92;;;;;;;16.40;72.90;101164.25;1734598;82;25880;-83
2022/06/15 06:07:14;;;;;;;8.45;2.17;;;;;;;16.46;72.59;101165.30;1763616;81;25859;-83
2022/06/15 06:09:41;;;;;;;4.72;2.35;;;;;;;16.59;73.60;101164.80;1731272;82;25733;-84
2022/06/15 06:12:09;;;;;;;10.72;2.85;;;;;;;16.72;72.49;101170.69;1765113;80;27456;-83
2022/06/15 06:14:35;;;;;;;6.75;2.30;;;;;;;16.76;71.53;101171.41;1745998;80;25806;-83
2022/06/15 06:17:02;;;;;;;9.65;2.55;;;;;;;16.80;70.94;101170.44;1751369;81;25772;-82
2022/06/15 06:19:28;;;;;;;6.62;2.45;;;;;;;16.81;71.31;101168.87;1765206;81;26201;-82
2022/06/15 06:21:54;;;;;;;5.70;2.47;;;;;;;16.87;71.29;101159.89;1709327;82;25958;-82
2022/06/15 06:24:21;;;;;;;5.80;2.37;;;;;;;17.01;71.72;101158.48;1709681;83;28101;-82
2022/06/15 06:26:47;;;;;;;5.42;2.50;;;;;;;17.11;71.53;101162.94;1715925;82;25570;-82
2022/06/15 06:29:15;;;;;;;7.80;2.37;;;;;;;17.16;70.31;101163.09;1734997;82;25827;-82
2022/06/15 06:31:43;;;;;;;10.05;2.70;;;;;;;17.25;71.29;101166.71;1741253;82;26006;-83
2022/06/15 06:34:10;;;;;;;8.28;2.45;;;;;;;17.38;70.97;101159.87;1749758;80;25961;-83
2022/06/15 06:36:44;;;;;;;10.28;2.35;;;;;;;17.45;70.00;101154.41;1729811;82;27476;-83
2022/06/15 06:39:14;;;;;;;8.85;2.27;;;;;;;17.48;69.91;101149.89;1765233;81;25835;-82
2022/06/15 06:41:41;;;;;;;7.15;2.22;;;;;;;17.47;69.53;101161.25;1758349;80;25308;-82
2022/06/15 06:44:10;;;;;;;7.22;2.27;;;;;;;17.50;69.46;101158.66;1748385;80;25848;-83
2022/06/15 06:46:37;;;;;;;6.08;2.10;;;;;;;17.55;68.86;101163.75;1763805;80;25849;-83
2022/06/15 06:49:05;;;;;;;10.80;2.30;;;;;;;17.64;68.71;101163.77;1733646;82;27461;-84
2022/06/15 06:51:35;;;;;;;8.15;2.27;;;;;;;17.73;69.68;101165.17;1764731;81;25980;-82
2022/06/15 06:54:03;;;;;;;5.08;2.10;;;;;;;17.86;69.19;101163.40;1741527;80;25818;-83
2022/06/15 06:56:29;;;;;;;4.95;2.08;;;;;;;18.00;69.51;101156.32;1753526;81;25940;-83
2022/06/15 06:58:56;;;;;;;8.50;2.95;;;;;;;18.09;68.28;101160.39;1741328;82;25276;-82
2022/06/15 07:01:22;;;;;;;3.58;1.90;;;;;;;18.11;68.39;101162.34;1765083;81;27451;-82
2022/06/15 07:03:49;;;;;;;6.25;1.90;;;;;;;18.07;68.04;101163.05;1741123;82;25332;-83
2022/06/15 07:06:15;;;;;;;5.78;2.20;;;;;;;18.13;69.29;101164.86;1740267;81;25781;-82
2022/06/15 07:08:41;;;;;;;4.03;1.65;;;;;;;18.27;68.79;101160.96;1741392;82;26613;-84
2022/06/15 07:11:16;;;;;;;5.30;1.60;;;;;;;18.33;67.31;101158.70;1752160;81;25944;-82
2022/06/15 07:13:44;;;;;;;5.95;2.67;;;;;;;18.29;66.75;101156.98;1711721;82;27480;-83
2022/06/15 07:16:13;;;;;;;6.45;1.92;;;;;;;18.20;66.60;101156.12;1723416;81;25861;-84
2022/06/15 07:18:40;;;;;;;4.22;1.90;;;;;;;18.12;66.57;101153.18;1758256;81;25982;-83
2022/06/15 07:21:12;;;;;;;5.87;2.08;;;;;;;18.21;67.53;101159.14;1716378;82;26291;-84
2022/06/15 07:23:40;;;;;;;6.10;2.00;;;;;;;18.35;66.65;101155.23;1740860;82;25926;-82
2022/06/15 07:26:11;;;;;;;5.05;1.60;;;;;;;18.46;66.87;101153.19;1738485;80;27820;-83
2022/06/15 07:28:39;;;;;;;4.17;1.60;;;;;;;18.56;67.14;101144.02;1730342;82;25828;-84
2022/06/15 07:31:07;;;;;;;4.95;2.20;;;;;;;18.61;65.83;101152.81;1740215;81;25792;-83
2022/06/15 07:33:36;;;;;;;7.95;1.92;;;;;;;18.45;64.86;101150.98;1733814;82;25774;-82
2022/06/15 07:36:03;;;;;;;6.15;1.60;;;;;;;18.31;65.40;101150.80;1734886;82;26476;-82
2022/06/15 07:38:30;;;;;;;3.50;1.47;;;;;;;18.22;64.71;101152.14;1733487;82;27452;-83
2022/06/15 07:40:59;;;;;;;8.65;1.75;;;;;;;18.13;65.62;101154.02;1740986;82;25396;-82
2022/06/15 07:43:26;;;;;;;6.37;1.65;;;;;;;18.17;65.86;101151.16;1761901;80;25852;-83
2022/06/15 07:45:52;;;;;;;4.65;1.50;;;;;;;18.24;66.84;101156.81;1732795;82;26255;-83
2022/06/15 07:51:03;;;;;;;9.45;1.80;;;;;;;18.33;66.47;101158.19;1765288;80;27496;-81
2022/06/15 07:53:29;;;;;;;5.03;1.70;;;;;;;18.34;66.18;101159.02;1740708;81;26499;-83
2022/06/15 07:55:56;;;;;;;8.38;2.00;;;;;;;18.37;66.44;101161.27;1753455;81;25935;-83
2022/06/15 07:58:23;;;;;;;6.12;1.47;;;;;;;18.39;65.98;101157.28;1753392;81;26609;-82
2022/06/15 08:00:50;;;;;;;3.55;1.80;;;;;;;18.39;65.88;101152.41;1743842;81;26571;-83
2022/06/15 08:03:18;;;;;;;9.43;2.40;;;;;;;18.49;66.08;101152.75;1760044;81;27439;-83
2022/06/15 08:05:49;;;;;;;4.17;1.42;;;;;;;18.53;64.78;101148.52;1745166;81;25883;-82
2022/06/15 08:08:20;;;;;;;4.78;1.50;;;;;;;18.59;65.77;101151.69;1765312;81;25766;-83
2022/06/15 08:10:48;;;;;;;11.80;2.55;;;;;;;18.61;65.03;101156.88;1764318;81;26564;-82
2022/06/15 08:13:15;;;;;;;6.03;1.50;;;;;;;18.69;66.34;101153.34;1763477;81;26432;-83
2022/06/15 08:15:43;;;;;;;6.95;2.05;;;;;;;18.88;66.75;101151.47;1754677;81;27433;-83
2022/06/15 08:18:15;;;;;;;5.90;1.82;;;;;;;19.04;65.84;101151.67;1764951;81;25752;-83
2022/06/15 08:21:05;;;;;;;7.53;1.70;;;;;;;19.04;65.41;101153.03;1753084;81;25729;-83
2022/06/15 08:23:35;;;;;;;3.92;1.40;;;;;;;19.17;65.84;101147.95;1767556;80;25753;-82
2022/06/15 08:26:07;;;;;;;3.77;1.40;;;;;;;19.34;65.57;101146.77;1743704;80;26055;-83
2022/06/15 08:28:38;;;;;;;6.58;1.90;;;;;;;19.41;64.45;101155.69;1728535;82;27465;-83
2022/06/15 08:31:04;;;;;;;5.45;1.67;;;;;;;19.39;64.14;101142.34;1765715;81;25791;-82
2022/06/15 08:33:31;;;;;;;3.22;1.40;;;;;;;19.35;64.46;101149.83;1721873;82;25873;-82
2022/06/15 08:35:58;;;;;;;5.20;1.62;;;;;;;19.34;64.15;101150.84;1758063;81;25922;-83
2022/06/15 08:38:27;;;;;;;4.65;1.80;;;;;;;19.19;63.68;101158.88;1723822;82;25314;-83
2022/06/15 08:41:04;;;;;;;4.15;1.70;;;;;;;18.98;63.13;101160.73;1722640;82;27468;-84
2022/06/15 08:44:11;;;;;;;6.45;2.00;;;;;;;18.80;63.81;101155.82;1767929;80;26409;-83
2022/06/15 08:47:10;;;;;;;7.22;1.60;;;;;;;18.67;64.55;101160.08;1768752;79;25769;-83
2022/06/15 08:50:32;;;;;;;7.85;2.25;;;;;;;18.50;64.20;101161.17;1727434;80;26233;-81
2022/06/15 08:53:43;;;;;;;5.28;1.90;;;;;;;18.44;65.23;101166.14;1722731;82;26053;-82
2022/06/15 08:56:38;;;;;;;4.28;1.70;;;;;;;18.52;66.34;101154.98;1734715;82;27470;-82
2022/06/15 08:59:36;;;;;;;6.30;2.20;;;;;;;18.68;66.51;101158.48;1764957;81;25695;-82
2022/06/15 09:02:31;;;;;;;3.72;1.47;;;;;;;18.91;66.27;101154.55;1764921;81;25938;-82
2022/06/15 09:05:34;;;;;;;4.25;1.57;;;;;;;19.13;66.67;101153.02;1728794;82;25915;-84
2022/06/15 09:08:33;;;;;;;6.20;1.80;;;;;;;19.37;66.29;101147.19;1733148;81;26357;-82
2022/06/15 09:11:17;;;;;;;3.08;0.98;;;;;;;19.61;65.07;101144.81;1735636;82;28298;-83
2022/06/15 09:13:52;;;;;;;2.60;1.32;;;;;;;19.74;62.77;101153.29;1738307;81;25722;-83
2022/06/15 09:16:30;;;;;;;2.87;1.10;;;;;;;19.72;61.51;101153.53;1719687;82;25849;-82
2022/06/15 09:19:14;;;;;;;3.58;1.20;;;;;;;19.65;61.34;101156.88;1735615;82;26601;-83
2022/06/15 09:21:52;;;;;;;3.33;1.37;;;;;;;19.58;62.10;101156.17;1765678;80;25952;-83
2022/06/15 09:24:50;;;;;;;4.40;1.55;;;;;;;19.60;62.30;101155.93;1746336;80;27470;-82
2022/06/15 09:27:30;;;;;;;3.60;1.35;;;;;;;19.49;62.16;101154.00;1738465;82;25772;-82
2022/06/15 09:30:00;;;;;;;;;;;;;;;19.38;61.90;101156.14;1762071;80;25761;-83
2022/06/15 09:32:35;;;;;;;3.10;1.20;;;;;;;19.26;61.84;101172.37;1711171;82;25786;-82
2022/06/15 09:35:16;;;;;;;2.70;1.47;;;;;;;19.19;62.11;101163.48;1729452;82;25801;-82
2022/06/15 09:37:45;;;;;;;;;;;;;;;19.20;62.08;101165.16;1735795;82;27469;-82
2022/06/15 09:40:14;;;;;;;2.27;1.37;;;;;;;19.21;62.60;101158.13;1740903;82;27704;-82
2022/06/15 09:42:52;;;;;;;4.65;1.60;;;;;;;19.24;63.09;101153.60;1753166;80;25834;-82
2022/06/15 09:45:39;;;;;;;2.37;1.30;;;;;;;19.30;63.87;101157.27;1729975;81;26560;-82
2022/06/15 09:48:26;;;;;;;10.60;1.85;;;;;;;19.47;64.05;101152.05;1734893;81;25812;-83
2022/06/15 09:51:18;;;;;;;6.53;1.77;;;;;;;19.47;62.33;101162.91;1749539;81;27441;-83
2022/06/15 09:53:52;;;;;;;4.03;1.42;;;;;;;19.30;62.55;101168.14;1733029;82;25498;-83
2022/06/15 09:56:20;;;;;;;4.45;1.65;;;;;;;19.08;62.59;101166.97;1751600;81;25825;-84
2022/06/15 09:59:03;;;;;;;5.00;2.05;;;;;;;18.93;63.13;101169.24;1741431;82;26114;-83
2022/06/15 10:01:39;;;;;;;6.60;2.67;;;;;;;18.74;62.87;101167.59;1754210;81;25592;-81
2022/06/15 10:04:22;;;;;;;3.83;2.20;;;;;;;18.57;63.73;101167.37;1765372;80;27727;-82
2022/06/15 10:06:54;;;;;;;2.83;1.82;;;;;;;18.45;64.03;101168.63;1711867;82;25995;-82
2022/06/15 10:09:28;;;;;;;4.03;2.12;;;;;;;18.37;64.39;101172.13;1734651;81;25915;-82
2022/06/15 10:15:13;;;;;;;4.00;1.90;;;;;;;18.33;65.08;101169.03;1707692;83;25804;-83
2022/06/15 10:17:48;;;;;;;3.83;2.10;;;;;;;18.35;65.78;101169.64;1713436;83;27472;-83
2022/06/15 10:20:35;;;;;;;3.95;1.42;;;;;;;18.40;65.20;101176.59;1722517;82;26428;-82
2022/06/15 10:23:16;;;;;;;6.75;1.90;;;;;;;18.39;65.46;101170.84;1735527;82;25737;-82
2022/06/15 10:25:51;;;;;;;3.75;1.90;;;;;;;18.45;65.37;101170.53;1734999;81;25768;-83
2022/06/15 10:28:28;;;;;;;2.80;1.32;;;;;;;18.53;65.77;101172.94;1750142;81;26442;-82
2022/06/15 10:31:00;;;;;;;3.02;1.45;;;;;;;18.60;65.62;101169.64;1740215;80;27619;-82
2022/06/15 10:33:49;;;;;;;6.62;1.87;;;;;;;18.67;64.40;101166.30;1732571;80;25776;-81
2022/06/15 10:36:30;;;;;;;3.20;1.37;;;;;;;18.73;65.12;101168.66;1737750;82;25934;-82
2022/06/15 10:39:04;;;;;;;7.20;2.10;;;;;;;18.87;64.79;101158.77;1765724;80;25860;-81
2022/06/15 10:41:46;;;;;;;6.50;1.75;;;;;;;19.04;65.58;101158.98;1741477;82;25295;-82
2022/06/15 10:44:32;;;;;;;3.30;2.05;;;;;;;19.37;67.34;101156.70;1752184;80;27524;-83
2022/06/15 10:47:07;;;;;;;4.95;1.90;;;;;;;19.68;65.80;101147.43;1741060;81;25804;-83
2022/06/15 10:49:39;;;;;;;4.55;1.90;;;;;;;19.86;65.41;101146.84;1763699;81;25759;-82
2022/06/15 10:52:19;;;;;;;3.58;1.40;;;;;;;19.96;64.60;101142.16;1740410;82;25898;-83
2022/06/15 11:03:22;;;;;;;3.17;1.40;;;;;;;19.60;62.51;101149.97;1741013;82;25990;-82
2022/06/15 11:05:53;;;;;;;2.52;1.37;;;;;;;19.63;63.22;101157.64;1756724;80;26581;-82
2022/06/15 11:08:29;;;;;;;5.05;1.70;;;;;;;19.68;63.07;101150.98;1760685;81;25773;-82
2022/06/15 11:11:26;;;;;;;4.65;1.47;;;;;;;19.78;63.25;101149.88;1734489;82;27423;-82
2022/06/15 11:14:06;;;;;;;2.90;1.52;;;;;;;19.98;63.67;101144.12;1756888;81;25260;-82
2022/06/15 11:19:29;;;;;;;1.67;1.40;;;;;;;20.08;62.28;101144.91;1719088;80;25691;-83
2022/06/15 11:22:10;;;;;;;2.90;1.10;;;;;;;20.12;60.83;101147.45;1729072;82;25276;-82
2022/06/15 11:25:03;;;;;;;1.80;1.25;;;;;;;20.07;59.78;101141.36;1752890;81;27551;-84
2022/06/15 11:27:42;;;;;;;2.98;1.30;;;;;;;20.06;60.55;101146.48;1740435;82;26542;-82
2022/06/15 11:30:39;;;;;;;1.98;0.90;;;;;;;20.09;61.13;101141.11;1765658;81;25975;-82
2022/06/15 11:33:22;;;;;;;3.05;1.35;;;;;;;20.10;59.45;101141.42;1753092;81;25930;-82
2022/06/15 11:36:03;;;;;;;3.37;1.20;;;;;;;20.17;59.43;101140.22;1760866;81;26548;-82
2022/06/15 11:38:44;;;;;;;2.20;1.12;;;;;;;20.39;59.19;101148.66;1749973;81;28989;-82
2022/06/15 11:41:17;;;;;;;;;;;;;;;20.55;58.50;101136.50;1741049;81;25768;-83
2022/06/15 11:43:47;;;;;;;4.33;1.50;;;;;;;20.72;57.91;101135.25;1730661;82;25904;-83
2022/06/15 11:46:49;;;;;;;2.90;0.95;;;;;;;20.78;58.10;101133.45;1753542;81;25764;-81
2022/06/15 11:49:57;;;;;;;3.85;1.15;;;;;;;20.83;56.92;101134.37;1741292;82;26428;-81
2022/06/15 11:52:48;;;;;;;2.20;1.17;;;;;;;21.03;58.23;101132.10;1764365;81;27466;-81
2022/06/15 11:55:43;;;;;;;5.08;1.57;;;;;;;21.29;58.39;101132.89;1751127;80;26094;-82
2022/06/15 11:58:36;;;;;;;4.30;1.40;;;;;;;21.42;59.03;101120.33;1744454;80;25365;-82
2022/06/15 12:01:40;;;;;;;4.42;1.45;;;;;;;21.57;58.69;101125.75;1760632;80;26560;-82
2022/06/15 12:04:44;;;;;;;3.22;1.37;;;;;;;21.58;58.13;101128.22;1737571;82;25747;-82
2022/06/15 12:07:47;;;;;;;3.22;1.50;;;;;;;21.68;58.39;101125.69;1748615;80;25978;-82
2022/06/15 12:10:31;;;;;;;5.95;1.45;;;;;;;21.80;57.84;101124.23;1723634;82;25825;-83
2022/06/15 12:13:03;;;;;;;3.92;1.22;;;;;;;21.85;57.46;101129.81;1716407;82;25847;-82
2022/06/15 12:15:38;;;;;;;3.72;2.45;;;;;;;21.72;55.15;101123.28;1718684;82;25837;-82
2022/06/15 12:18:39;;;;;;;2.30;1.20;;;;;;;21.45;55.20;101132.09;1735593;82;25419;-82